Time;durP1;ratioP1;P1;durP2;ratioP2;P2;SDS_P1;SDS_P2;PMS_P1;PMS_P2;Temp;Humidity;BMP_temperature;BMP_pressure;BME280_temperature;BME280_humidity;BME280_pressure;Samples;Min_cycle;Max_cycle;Signal;HPM_P1;HPM_P2
2023/03/09 00:41:41;;;;;;;37.00;13.20;;;;;;;7.20;100.00;100028.24;109697;1259;61023;-94
2023/03/09 00:50:14;;;;;;;42.30;14.90;;;;;;;6.91;100.00;100008.95;109323;1259;71144;-94
2023/03/09 01:01:27;;;;;;;39.70;15.10;;;;;;;6.51;100.00;100005.13;109229;1259;73296;-94
2023/03/09 01:04:52;;;;;;;39.00;14.70;;;;;;;6.39;100.00;99996.89;108643;1264;71344;-94
2023/03/09 01:07:59;;;;;;;37.40;15.20;;;;;;;6.26;100.00;100004.56;108014;1271;70174;-94
2023/03/09 01:10:48;;;;;;;45.10;16.90;;;;;;;6.18;100.00;100004.66;107531;1276;60502;-94
2023/03/09 01:13:15;;;;;;;33.50;15.50;;;;;;;6.13;100.00;100009.18;107321;1285;62362;-94
2023/03/09 01:15:42;;;;;;;43.30;17.40;;;;;;;6.02;100.00;100010.25;107040;1282;74559;-93
2023/03/09 01:18:27;;;;;;;38.10;16.70;;;;;;;5.88;100.00;100012.04;106215;1288;73495;-92
2023/03/09 01:20:54;;;;;;;38.10;16.70;;;;;;;5.81;100.00;100012.50;105834;1291;72429;-94
2023/03/09 01:26:29;;;;;;;49.00;18.00;;;;;;;5.71;100.00;100012.23;105183;1292;600472;-93
2023/03/09 01:29:32;;;;;;;47.20;19.50;;;;;;;5.64;100.00;100015.01;105345;1291;615753;-93
2023/03/09 01:31:58;;;;;;;42.90;18.10;;;;;;;5.58;100.00;100020.60;105570;1291;59316;-92
2023/03/09 01:34:24;;;;;;;45.30;18.70;;;;;;;5.55;100.00;100019.34;105241;1290;59419;-93
2023/03/09 01:37:09;;;;;;;50.90;19.70;;;;;;;5.57;100.00;100018.48;105370;1294;71029;-93
2023/03/09 01:39:36;;;;;;;44.10;17.50;;;;;;;5.60;100.00;100019.96;105373;1294;58856;-93
2023/03/09 01:45:27;;;;;;;45.30;20.20;;;;;;;5.57;100.00;100014.66;105343;1292;615209;-93
2023/03/09 01:48:13;;;;;;;47.10;19.00;;;;;;;5.49;100.00;100017.52;105603;1297;60247;-93
2023/03/09 01:50:43;;;;;;;50.80;20.80;;;;;;;5.46;100.00;100011.91;105255;1292;60555;-92
2023/03/09 01:53:55;;;;;;;55.50;22.60;;;;;;;5.46;100.00;100009.61;105931;1285;614383;-94
2023/03/09 01:56:44;;;;;;;57.50;22.70;;;;;;;5.43;100.00;100013.79;105677;1285;59988;-92
2023/03/09 01:59:41;;;;;;;43.20;18.90;;;;;;;5.51;100.00;100013.70;105280;1296;60310;-93
2023/03/09 02:02:10;;;;;;;45.40;20.90;;;;;;;5.53;100.00;100013.59;104950;1300;72050;-94
2023/03/09 02:05:04;;;;;;;64.30;25.10;;;;;;;5.56;100.00;100007.98;104757;1302;74738;-93
2023/03/09 02:08:11;;;;;;;63.90;25.40;;;;;;;5.65;100.00;100008.83;100971;1303;5135430;-95
2023/03/09 02:11:03;;;;;;;66.20;22.70;;;;;;;5.73;100.00;100009.06;104392;1308;62912;-94
2023/03/09 02:13:53;;;;;;;71.50;27.70;;;;;;;5.77;100.00;100010.84;103906;1311;60781;-93
2023/03/09 02:17:17;;;;;;;67.30;26.90;;;;;;;5.82;100.00;100012.58;103583;1315;72281;-93
2023/03/09 02:20:15;;;;;;;62.90;26.20;;;;;;;5.88;100.00;100019.35;103141;1324;72577;-93
2023/03/09 02:23:03;;;;;;;63.10;25.90;;;;;;;5.92;100.00;100018.30;103071;1327;71207;-93
2023/03/09 02:26:15;;;;;;;81.10;29.70;;;;;;;5.97;100.00;100018.92;102803;1327;61084;-94
2023/03/09 02:32:43;;;;;;;87.40;30.70;;;;;;;6.08;100.00;100007.88;106699;1283;72120;-94
2023/03/09 02:35:39;;;;;;;90.90;31.50;;;;;;;6.20;100.00;100006.62;106882;1283;70690;-93
2023/03/09 03:13:35;;;;;;;107.20;35.90;;;;;;;7.42;100.00;100003.71;106842;1286;72409;-94
2023/03/09 03:49:15;;;;;;;73.50;28.70;;;;;;;7.86;100.00;100002.05;106671;1286;62588;-95
2023/03/09 04:29:21;;;;;;;59.00;24.90;;;;;;;7.88;100.00;99994.23;106729;1288;60266;31
2023/03/09 05:46:10;;;;;;;68.00;27.60;;;;;;;8.36;100.00;99972.71;106367;1281;71346;-94
2023/03/09 05:54:21;;;;;;;;;;;;;;;;;;;;;
2023/03/09 06:53:07;;;;;;;93.70;34.00;;;;;;;8.80;100.00;99967.89;106953;1287;74112;31
2023/03/09 07:12:44;;;;;;;59.60;23.70;;;;;;;9.44;100.00;99964.16;107018;1281;59028;31
2023/03/09 07:25:49;;;;;;;58.40;22.70;;;;;;;9.90;100.00;99960.61;106415;1288;60257;-92
2023/03/09 07:28:16;;;;;;;51.10;20.60;;;;;;;9.92;100.00;99958.67;105245;1288;73971;-92
2023/03/09 07:34:08;;;;;;;60.70;20.30;;;;;;;10.10;100.00;99966.19;105390;1289;601975;-94
2023/03/09 07:40:07;;;;;;;60.00;20.60;;;;;;;10.35;100.00;99973.16;105834;1290;58440;-95
2023/03/09 07:46:09;;;;;;;56.80;20.60;;;;;;;10.41;100.00;99979.61;106410;1291;71428;-94
2023/03/09 07:54:42;;;;;;;45.30;19.10;;;;;;;10.96;100.00;99966.30;106378;1291;70973;-94
2023/03/09 08:08:26;;;;;;;47.70;19.40;;;;;;;11.62;100.00;99954.85;106411;1291;71660;-94
2023/03/09 08:10:53;;;;;;;44.90;18.00;;;;;;;11.71;100.00;99952.45;103096;1294;73294;-86
2023/03/09 08:13:21;;;;;;;47.40;18.20;;;;;;;11.80;100.00;99958.96;103017;1295;73129;-86
2023/03/09 08:15:48;;;;;;;46.40;17.70;;;;;;;12.10;100.00;99961.99;105829;1296;63248;-86
2023/03/09 08:18:14;;;;;;;41.90;16.40;;;;;;;12.34;100.00;99960.09;105908;1295;60147;-86
2023/03/09 08:20:40;;;;;;;40.90;16.70;;;;;;;12.68;100.00;99961.86;105796;1296;58128;-88
2023/03/09 08:23:06;;;;;;;42.00;16.60;;;;;;;13.27;100.00;99952.54;105853;1297;58101;-87
2023/03/09 08:25:32;;;;;;;40.90;18.10;;;;;;;13.98;100.00;99952.52;105881;1295;58123;-86
2023/03/09 08:27:59;;;;;;;48.40;17.60;;;;;;;14.90;100.00;99949.08;105794;1296;58320;-87
2023/03/09 08:30:25;;;;;;;37.40;15.80;;;;;;;15.50;100.00;99946.52;105890;1295;58033;-88
2023/03/09 08:32:52;;;;;;;39.00;16.40;;;;;;;16.11;100.00;99941.41;105729;1296;58163;-87
2023/03/09 08:35:20;;;;;;;34.70;15.80;;;;;;;17.41;100.00;99936.51;105712;1298;58720;-85
2023/03/09 08:37:46;;;;;;;32.60;17.10;;;;;;;19.47;100.00;99934.81;105688;1298;73434;-87
2023/03/09 08:40:13;;;;;;;34.20;16.00;;;;;;;21.25;93.60;99933.25;105673;1297;58656;-87
2023/03/09 08:42:39;;;;;;;29.40;15.50;;;;;;;22.46;72.54;99919.93;105641;1298;58155;-89
2023/03/09 08:45:07;;;;;;;31.30;15.90;;;;;;;23.04;62.63;99922.49;105589;1298;58337;-88
2023/03/09 08:47:33;;;;;;;28.20;15.30;;;;;;;23.73;61.05;99923.89;105883;1294;73502;-88
2023/03/09 08:49:59;;;;;;;28.80;15.30;;;;;;;24.21;58.31;99922.30;105727;1297;72297;-88
2023/03/09 08:52:25;;;;;;;27.90;16.40;;;;;;;24.97;56.54;99918.17;105974;1295;58628;-88
2023/03/09 08:54:51;;;;;;;29.10;16.40;;;;;;;25.72;52.72;99912.61;105720;1294;58101;-89
2023/03/09 08:57:18;;;;;;;28.30;14.80;;;;;;;26.13;48.54;99914.19;105881;1294;58312;-88
2023/03/09 08:59:46;;;;;;;28.50;15.90;;;;;;;26.24;45.09;99906.77;105929;1296;58147;-89
2023/03/09 09:02:14;;;;;;;30.90;16.10;;;;;;;26.77;46.45;99899.41;105934;1294;71995;-89
2023/03/09 09:04:43;;;;;;;31.60;16.60;;;;;;;27.15;42.18;99892.75;105899;1294;60395;-88
2023/03/09 09:07:09;;;;;;;32.20;15.40;;;;;;;27.46;42.78;99884.13;106014;1292;61119;-88
2023/03/09 09:09:34;;;;;;;32.20;16.80;;;;;;;27.63;41.81;99879.90;106078;1293;58231;-88
2023/03/09 09:12:00;;;;;;;29.20;16.30;;;;;;;27.54;41.39;99881.07;106113;1293;58334;-85
2023/03/09 09:14:26;;;;;;;31.60;16.00;;;;;;;27.56;40.34;99878.71;106055;1290;58327;-85
2023/03/09 09:16:51;;;;;;;29.00;15.70;;;;;;;27.84;39.83;99869.82;106246;1290;58346;-86
2023/03/09 09:19:18;;;;;;;29.20;15.80;;;;;;;28.10;40.49;99863.41;106387;1290;58058;-85
2023/03/09 09:21:44;;;;;;;27.40;16.10;;;;;;;28.47;37.73;99858.01;106296;1290;73647;-85
2023/03/09 09:24:09;;;;;;;23.30;14.70;;;;;;;28.49;39.58;99852.05;106300;1291;58108;-85
2023/03/09 09:26:35;;;;;;;23.20;14.00;;;;;;;28.62;36.90;99845.84;106202;1291;58209;-85
2023/03/09 09:29:01;;;;;;;26.50;14.70;;;;;;;28.50;36.07;99843.02;106321;1290;58122;-85
2023/03/09 09:31:28;;;;;;;19.90;12.50;;;;;;;28.39;37.61;99834.56;106296;1290;58533;-85
2023/03/09 09:33:54;;;;;;;30.00;15.00;;;;;;;28.25;36.14;99834.66;106225;1292;58114;-86
2023/03/09 09:36:20;;;;;;;55.10;27.10;;;;;;;27.92;36.88;99834.38;106353;1290;58201;-85
2023/03/09 09:38:47;;;;;;;23.60;14.00;;;;;;;28.06;37.32;99827.96;106294;1291;58030;-85
2023/03/09 09:41:22;;;;;;;22.20;12.90;;;;;;;27.78;36.56;99825.27;106313;1291;57943;-85
2023/03/09 09:43:50;;;;;;;18.80;11.70;;;;;;;27.37;36.46;99827.11;106313;1291;73856;-84
2023/03/09 09:46:20;;;;;;;21.80;12.30;;;;;;;27.23;37.01;99829.86;106319;1291;74089;-85
2023/03/09 09:48:47;;;;;;;21.50;12.50;;;;;;;27.07;37.35;99826.08;105989;1292;71088;-86
2023/03/09 09:51:43;;;;;;;23.40;12.10;;;;;;;26.75;36.59;99830.69;106319;1291;60370;-86
2023/03/09 09:54:20;;;;;;;21.90;12.30;;;;;;;26.37;37.38;99827.95;106204;1291;60362;-86
2023/03/09 09:56:52;;;;;;;23.90;11.10;;;;;;;25.73;37.05;99828.70;106293;1291;73688;-86
2023/03/09 09:59:47;;;;;;;21.40;12.00;;;;;;;25.43;38.32;99827.32;106323;1290;74356;-86
2023/03/09 10:02:19;;;;;;;25.10;13.10;;;;;;;24.97;38.12;99821.77;106270;1291;73406;-86
2023/03/09 10:05:22;;;;;;;22.10;11.80;;;;;;;24.36;39.17;99815.11;106179;1291;59806;-84
2023/03/09 10:07:48;;;;;;;21.20;11.20;;;;;;;23.74;39.66;99816.91;106312;1290;60248;-86
2023/03/09 10:10:21;;;;;;;23.90;11.50;;;;;;;23.44;40.69;99817.02;106316;1291;58203;-86
2023/03/09 10:12:47;;;;;;;25.00;12.70;;;;;;;23.23;40.81;99813.10;106319;1290;74244;-87
2023/03/09 10:15:42;;;;;;;23.10;12.20;;;;;;;22.71;41.26;99807.50;106315;1290;58090;-86
2023/03/09 10:18:22;;;;;;;24.80;11.00;;;;;;;21.94;40.91;99806.46;105831;1297;60799;-86
2023/03/09 10:20:53;;;;;;;24.10;11.80;;;;;;;21.03;42.78;99809.27;105809;1297;60256;-86
2023/03/09 10:23:27;;;;;;;26.00;12.90;;;;;;;20.41;44.15;99810.75;105836;1295;73842;-87
2023/03/09 10:26:02;;;;;;;29.30;13.40;;;;;;;20.00;44.78;99808.55;105841;1295;74294;-86
2023/03/09 10:28:34;;;;;;;27.60;12.60;;;;;;;19.58;45.75;99803.59;105865;1295;73510;-86
2023/03/09 10:31:52;;;;;;;31.70;13.20;;;;;;;19.23;46.85;99805.50;105869;1295;60016;-86
2023/03/09 10:34:23;;;;;;;29.80;12.10;;;;;;;18.92;47.49;99803.63;105356;1302;61235;-85
2023/03/09 10:37:15;;;;;;;31.90;13.20;;;;;;;18.58;48.18;99796.04;105241;1303;73897;-85
2023/03/09 10:39:45;;;;;;;24.40;11.90;;;;;;;18.38;48.84;99799.83;105287;1303;73451;-86
2023/03/09 10:42:23;;;;;;;31.80;12.30;;;;;;;18.29;49.09;99796.50;105385;1302;72351;-87
2023/03/09 10:45:12;;;;;;;30.20;11.40;;;;;;;18.11;49.37;99797.03;105156;1303;62589;-87
2023/03/09 10:47:50;;;;;;;25.00;9.80;;;;;;;17.93;49.33;99795.94;104540;1311;60059;-87
2023/03/09 10:50:17;;;;;;;20.40;9.00;;;;;;;17.77;49.62;99790.69;104365;1312;73843;-86
2023/03/09 10:52:42;;;;;;;28.70;10.40;;;;;;;17.75;50.09;99787.48;104558;1310;58292;-87
2023/03/09 10:55:31;;;;;;;25.20;10.80;;;;;;;17.72;50.71;99782.94;104705;1307;58324;-88
2023/03/09 10:58:09;;;;;;;19.40;9.50;;;;;;;17.70;50.92;99777.33;104940;1307;60033;-86
2023/03/09 11:00:35;;;;;;;19.50;8.90;;;;;;;17.61;50.21;99773.77;104774;1307;60136;-87
2023/03/09 11:03:01;;;;;;;26.70;8.90;;;;;;;17.50;50.47;99774.97;104958;1308;73792;-88
2023/03/09 11:05:31;;;;;;;26.20;9.30;;;;;;;17.44;50.95;99772.52;104965;1307;59064;-86
2023/03/09 11:08:02;;;;;;;20.00;8.90;;;;;;;17.42;51.15;99770.35;104902;1308;73709;-86
2023/03/09 11:10:32;;;;;;;20.10;7.50;;;;;;;17.34;51.42;99766.11;105048;1300;60591;-86
2023/03/09 11:13:03;;;;;;;19.30;7.80;;;;;;;17.40;50.98;99759.70;105387;1300;60214;-87
2023/03/09 11:15:37;;;;;;;16.80;6.20;;;;;;;17.49;51.46;99760.14;105507;1299;73905;-86
2023/03/09 11:18:23;;;;;;;17.50;6.60;;;;;;;17.56;50.57;99755.73;105363;1303;74631;-87
2023/03/09 11:20:58;;;;;;;13.10;5.50;;;;;;;17.61;50.15;99750.51;105007;1305;72587;-87
2023/03/09 11:23:32;;;;;;;16.00;5.50;;;;;;;17.70;49.58;99747.52;105032;1305;61735;-86
2023/03/09 11:26:18;;;;;;;10.00;5.30;;;;;;;17.80;49.28;99741.00;105590;1297;60141;-87
2023/03/09 11:29:01;;;;;;;12.70;5.10;;;;;;;17.92;48.55;99738.28;105740;1297;72736;-87
2023/03/09 11:31:33;;;;;;;;;;;;;;;18.02;48.67;99731.20;105715;1297;74319;-87
2023/03/09 11:33:58;;;;;;;13.10;4.60;;;;;;;18.14;48.67;99729.30;105693;1297;73569;-87
2023/03/09 11:36:48;;;;;;;20.10;4.70;;;;;;;18.28;48.18;99731.92;105722;1297;58379;-86
2023/03/09 11:39:24;;;;;;;9.20;4.50;;;;;;;18.30;47.34;99733.10;105720;1297;60262;-88
2023/03/09 11:41:53;;;;;;;10.30;4.60;;;;;;;18.17;47.23;99730.75;105713;1297;72739;-87
2023/03/09 11:44:31;;;;;;;9.90;3.70;;;;;;;18.11;47.58;99727.88;105583;1297;74167;-88
2023/03/09 11:47:03;;;;;;;16.40;4.60;;;;;;;18.09;47.25;99724.91;105662;1297;72590;-88
2023/03/09 11:49:30;;;;;;;9.70;4.30;;;;;;;18.05;47.55;99723.06;105788;1294;60079;-87
2023/03/09 11:51:58;;;;;;;14.10;4.40;;;;;;;18.06;47.46;99715.74;106171;1290;60246;-87
2023/03/09 11:54:35;;;;;;;11.60;4.10;;;;;;;18.07;47.09;99716.80;106155;1291;73828;-87
2023/03/09 11:57:07;;;;;;;8.00;3.70;;;;;;;18.13;47.24;99710.83;106320;1290;74234;-88
2023/03/09 11:59:38;;;;;;;15.00;3.80;;;;;;;18.27;46.91;99708.42;106310;1290;72420;-87
2023/03/09 12:02:22;;;;;;;9.80;3.60;;;;;;;18.41;46.17;99705.46;106314;1291;60326;-87
2023/03/09 12:04:49;;;;;;;10.10;3.90;;;;;;;18.54;45.45;99704.59;106313;1290;61268;-87
2023/03/09 12:07:38;;;;;;;10.50;4.40;;;;;;;18.61;45.31;99700.32;106234;1291;73727;-89
2023/03/09 12:10:07;;;;;;;11.80;3.40;;;;;;;18.68;45.26;99701.89;106172;1291;73235;-87
2023/03/09 12:12:59;;;;;;;12.60;4.20;;;;;;;18.70;45.13;99700.96;106342;1290;73358;-87
2023/03/09 12:16:08;;;;;;;10.50;4.10;;;;;;;18.78;45.18;99696.49;106137;1292;60059;-88
2023/03/09 12:18:42;;;;;;;9.90;3.80;;;;;;;18.89;44.92;99696.33;105820;1296;60960;-87
2023/03/09 12:21:10;;;;;;;13.00;3.80;;;;;;;18.99;44.66;99696.16;105640;1296;73834;-87
2023/03/09 12:23:36;;;;;;;11.10;4.30;;;;;;;19.08;44.67;99696.51;105689;1297;74217;-89
2023/03/09 12:26:17;;;;;;;12.30;4.10;;;;;;;19.10;44.45;99699.55;105733;1297;58396;-88
2023/03/09 12:28:43;;;;;;;9.90;3.80;;;;;;;19.10;44.18;99698.52;105700;1297;60078;-88
2023/03/09 12:31:33;;;;;;;11.50;3.60;;;;;;;19.04;43.89;99697.09;105476;1297;58383;-88
2023/03/09 12:33:58;;;;;;;9.20;3.60;;;;;;;19.01;44.12;99696.59;105738;1297;74664;-88
2023/03/09 12:36:27;;;;;;;6.80;3.30;;;;;;;18.94;43.89;99694.27;105721;1300;58364;-87
2023/03/09 12:39:24;;;;;;;9.20;3.80;;;;;;;18.93;43.89;99691.58;105723;1297;73528;-88
2023/03/09 12:42:14;;;;;;;6.70;3.30;;;;;;;18.98;43.33;99693.31;105281;1303;61028;-88
2023/03/09 12:44:51;;;;;;;9.20;3.10;;;;;;;18.95;43.59;99692.42;105311;1303;60279;-89
2023/03/09 12:47:45;;;;;;;9.90;2.90;;;;;;;19.05;43.62;99687.46;105364;1303;74630;-87
2023/03/09 12:50:22;;;;;;;7.10;2.90;;;;;;;19.11;42.71;99679.75;104855;1307;73331;-88
2023/03/09 12:53:09;;;;;;;13.90;3.50;;;;;;;19.11;42.77;99678.04;104816;1308;72842;-88
2023/03/09 12:55:34;;;;;;;10.20;3.20;;;;;;;19.09;42.66;99674.56;105202;1302;61170;-88
2023/03/09 12:58:21;;;;;;;15.50;3.40;;;;;;;19.05;42.60;99669.41;105420;1302;58346;-88
2023/03/09 13:01:00;;;;;;;9.80;3.30;;;;;;;19.01;42.51;99669.44;105457;1301;74698;-88
2023/03/09 13:03:31;;;;;;;14.00;3.90;;;;;;;18.96;42.71;99664.69;105332;1302;73489;-88
2023/03/09 13:06:03;;;;;;;12.30;4.10;;;;;;;18.99;42.98;99667.26;105459;1302;72464;-87
2023/03/09 13:08:38;;;;;;;8.30;3.40;;;;;;;19.00;42.96;99665.37;105390;1302;61333;-87
2023/03/09 13:11:25;;;;;;;10.40;3.80;;;;;;;18.99;42.39;99657.96;105437;1302;61186;-87
2023/03/09 13:13:51;;;;;;;12.60;4.60;;;;;;;18.89;42.07;99653.65;105447;1302;74418;-87
2023/03/09 13:16:31;;;;;;;15.30;4.40;;;;;;;18.89;42.61;99653.89;105418;1301;58392;-88
2023/03/09 13:19:23;;;;;;;14.40;4.40;;;;;;;18.94;42.59;99652.28;105604;1296;72562;-88
2023/03/09 13:22:00;;;;;;;7.60;3.20;;;;;;;18.91;41.75;99646.80;105649;1298;58801;-87
2023/03/09 13:24:38;;;;;;;6.20;2.60;;;;;;;18.83;41.78;99644.73;105834;1296;61094;-87
2023/03/09 13:27:15;;;;;;;9.30;3.10;;;;;;;18.77;42.14;99648.20;105823;1290;73730;-88
2023/03/09 13:30:08;;;;;;;12.10;3.60;;;;;;;18.72;41.93;99644.09;106334;1290;74346;-88
2023/03/09 13:32:39;;;;;;;13.90;4.30;;;;;;;18.63;42.06;99644.56;106158;1290;71451;-88
2023/03/09 13:35:16;;;;;;;15.30;5.00;;;;;;;18.53;42.26;99643.51;106161;1290;60114;-87
2023/03/09 13:37:44;;;;;;;16.20;5.50;;;;;;;18.44;42.66;99638.45;106297;1290;61300;-89
2023/03/09 13:40:16;;;;;;;17.00;4.80;;;;;;;18.42;42.74;99635.25;106337;1291;74495;-87
2023/03/09 13:42:44;;;;;;;25.10;6.40;;;;;;;18.43;42.67;99628.52;106312;1291;74180;-87
2023/03/09 13:45:27;;;;;;;20.20;6.00;;;;;;;18.49;42.28;99621.55;106326;1291;74146;-87
2023/03/09 13:47:57;;;;;;;16.20;5.00;;;;;;;18.48;42.09;99619.55;106327;1290;60247;-87
2023/03/09 13:50:27;;;;;;;11.90;4.40;;;;;;;18.45;41.65;99614.30;106326;1291;60975;-88
2023/03/09 13:53:20;;;;;;;15.10;4.90;;;;;;;18.37;41.45;99610.92;106331;1290;73091;-88
2023/03/09 13:56:01;;;;;;;18.50;6.00;;;;;;;18.32;41.86;99602.02;106178;1292;74445;-88
2023/03/09 13:58:28;;;;;;;16.90;4.70;;;;;;;18.29;41.83;99601.83;106057;1292;73505;-88
2023/03/09 14:00:59;;;;;;;10.20;3.30;;;;;;;18.24;41.93;99602.80;106162;1292;60143;-88
2023/03/09 14:03:28;;;;;;;10.90;3.70;;;;;;;18.17;41.87;99597.34;106138;1292;59506;-90
2023/03/09 14:06:04;;;;;;;10.40;3.90;;;;;;;18.06;42.00;99592.83;105890;1292;74583;-89
2023/03/09 14:08:52;;;;;;;17.70;4.90;;;;;;;17.98;42.27;99593.38;106173;1292;74672;-89
2023/03/09 14:11:25;;;;;;;10.60;4.90;;;;;;;17.89;42.46;99586.21;105872;1293;73664;-89
2023/03/09 14:13:59;;;;;;;11.30;4.60;;;;;;;17.81;42.24;99588.73;106023;1293;60964;-90
2023/03/09 14:16:27;;;;;;;11.80;4.80;;;;;;;17.76;42.60;99578.14;106165;1294;60322;-88
2023/03/09 14:18:55;;;;;;;16.00;5.30;;;;;;;17.72;42.45;99577.92;105904;1295;73812;-89
2023/03/09 14:21:35;;;;;;;14.10;5.50;;;;;;;17.66;42.29;99571.70;105862;1295;73390;-90
2023/03/09 14:24:20;;;;;;;22.00;7.70;;;;;;;17.57;42.28;99571.38;105785;1297;72541;-89
2023/03/09 14:26:46;;;;;;;27.10;8.70;;;;;;;17.50;42.11;99569.92;105575;1297;60895;-89
2023/03/09 14:29:18;;;;;;;29.70;8.50;;;;;;;17.40;42.28;99571.05;105947;1294;58782;-89
2023/03/09 14:31:44;;;;;;;28.30;9.60;;;;;;;17.31;42.36;99572.48;105995;1293;73617;-90
2023/03/09 14:34:16;;;;;;;36.50;11.90;;;;;;;17.25;42.44;99573.73;105965;1294;58548;-90
2023/03/09 14:37:00;;;;;;;66.90;20.90;;;;;;;17.18;42.50;99575.95;105982;1293;73389;-90
2023/03/09 14:39:30;;;;;;;115.70;36.70;;;;;;;17.08;42.80;99567.77;105833;1294;60322;-89
2023/03/09 14:42:03;;;;;;;71.00;21.50;;;;;;;17.01;42.84;99565.19;106013;1293;58911;-89
2023/03/09 14:44:37;;;;;;;58.20;18.60;;;;;;;16.93;42.83;99560.42;105965;1293;74652;-89
2023/03/09 14:47:11;;;;;;;55.10;16.80;;;;;;;16.83;43.16;99563.02;105976;1295;73871;-90
2023/03/09 14:49:37;;;;;;;118.90;26.40;;;;;;;16.73;43.29;99561.54;106080;1291;72399;-90
2023/03/09 14:52:03;;;;;;;85.90;23.20;;;;;;;16.63;43.61;99563.21;106179;1290;58220;-89
2023/03/09 14:54:29;;;;;;;69.50;21.70;;;;;;;16.53;43.81;99559.62;106267;1291;58278;-90
2023/03/09 14:56:55;;;;;;;76.00;26.10;;;;;;;16.44;44.05;99552.61;106303;1290;58403;-90
2023/03/09 14:59:20;;;;;;;57.60;19.50;;;;;;;16.35;44.16;99549.30;106298;1291;58501;-90
2023/03/09 15:01:54;;;;;;;37.50;11.90;;;;;;;16.24;44.52;99550.32;106146;1291;58512;-90
2023/03/09 15:04:21;;;;;;;33.90;12.00;;;;;;;16.12;44.95;99549.23;106045;1293;59392;-90
2023/03/09 15:06:50;;;;;;;63.90;20.80;;;;;;;16.01;45.13;99549.02;105565;1299;73763;-91
2023/03/09 15:09:16;;;;;;;65.40;23.40;;;;;;;15.88;45.51;99549.23;105580;1299;74046;-89
2023/03/09 15:11:43;;;;;;;76.30;25.90;;;;;;;15.75;45.80;99555.02;105552;1299;58704;-89
2023/03/09 15:14:32;;;;;;;56.30;19.30;;;;;;;15.61;46.17;99554.33;105540;1299;58343;-89
2023/03/09 15:17:00;;;;;;;38.20;13.20;;;;;;;15.43;46.80;99552.36;105518;1299;62327;-88
2023/03/09 15:19:26;;;;;;;29.50;11.60;;;;;;;15.27;47.07;99550.31;105592;1299;74529;-89
2023/03/09 15:21:58;;;;;;;23.80;8.10;;;;;;;15.12;47.44;99549.60;105459;1300;58379;-90
2023/03/09 15:24:25;;;;;;;19.60;6.80;;;;;;;14.96;47.96;99556.20;105576;1299;72695;-90
2023/03/09 15:26:52;;;;;;;20.20;8.00;;;;;;;14.79;48.36;99554.22;105551;1299;61234;-90
2023/03/09 15:29:19;;;;;;;30.90;12.70;;;;;;;14.64;48.74;99556.49;105503;1299;58613;-89
2023/03/09 15:31:45;;;;;;;48.00;15.40;;;;;;;14.46;49.36;99555.40;105515;1299;73695;-90
2023/03/09 15:34:11;;;;;;;64.00;22.30;;;;;;;14.30;49.71;99558.08;105467;1299;58649;-88
2023/03/09 15:36:37;;;;;;;76.60;26.10;;;;;;;14.15;50.25;99556.73;105505;1300;58562;-89
2023/03/09 15:39:03;;;;;;;84.20;27.40;;;;;;;14.00;50.64;99554.38;105925;1290;58354;-89
2023/03/09 15:41:29;;;;;;;80.30;24.80;;;;;;;13.86;50.86;99551.86;106319;1290;58345;-87
2023/03/09 15:44:25;;;;;;;59.90;19.10;;;;;;;13.72;51.30;99552.91;106328;1291;58177;-88
2023/03/09 15:46:51;;;;;;;40.00;14.00;;;;;;;13.53;51.96;99549.41;106021;1294;74738;-89
2023/03/09 15:49:17;;;;;;;44.30;15.50;;;;;;;13.39;52.80;99550.96;105991;1293;58360;-89
2023/03/09 15:51:43;;;;;;;48.40;17.80;;;;;;;13.27;53.10;99549.98;106003;1293;58118;-90
2023/03/09 15:54:08;;;;;;;91.80;37.70;;;;;;;13.14;53.49;99548.54;105914;1299;58249;-89
2023/03/09 15:56:34;;;;;;;102.90;35.10;;;;;;;13.03;54.35;99548.34;105947;1294;58321;-89
2023/03/09 15:58:59;;;;;;;133.40;56.10;;;;;;;12.92;54.79;99548.67;106057;1293;58478;-89
2023/03/09 16:01:26;;;;;;;89.30;41.10;;;;;;;12.81;55.44;99552.67;105981;1294;59979;-89
2023/03/09 16:03:52;;;;;;;56.90;24.50;;;;;;;12.70;56.12;99554.94;106023;1293;60063;-89
2023/03/09 16:06:20;;;;;;;51.90;22.30;;;;;;;12.60;56.87;99558.18;105954;1293;58378;-89
2023/03/09 16:08:46;;;;;;;46.10;18.60;;;;;;;12.51;57.78;99559.55;106003;1294;73653;-89
2023/03/09 16:11:12;;;;;;;39.50;14.70;;;;;;;12.44;58.51;99563.41;106041;1293;73528;-90
2023/03/09 16:13:39;;;;;;;33.60;12.70;;;;;;;12.37;59.01;99566.17;106047;1293;58281;-90
2023/03/09 16:16:05;;;;;;;26.40;10.70;;;;;;;12.30;59.91;99573.01;106085;1294;58377;-89
2023/03/09 16:18:31;;;;;;;43.70;18.30;;;;;;;12.24;60.51;99573.21;106257;1290;58768;-90
2023/03/09 16:21:00;;;;;;;52.50;21.80;;;;;;;12.17;61.26;99571.86;106327;1291;58279;-91
2023/03/09 16:23:26;;;;;;;33.50;13.50;;;;;;;12.12;62.39;99573.67;106178;1291;72514;-89
2023/03/09 16:25:54;;;;;;;26.10;11.70;;;;;;;12.07;63.70;99573.49;106275;1290;58251;-89
2023/03/09 16:28:24;;;;;;;23.30;8.30;;;;;;;12.02;64.16;99574.04;106296;1290;59988;-89
2023/03/09 16:30:50;;;;;;;24.70;8.40;;;;;;;11.98;64.74;99576.27;106105;1291;75969;-90
2023/03/09 16:33:16;;;;;;;19.70;7.90;;;;;;;11.92;65.00;99573.23;106152;1290;58337;-90
2023/03/09 16:35:44;;;;;;;20.90;7.70;;;;;;;11.86;65.88;99571.69;106246;1291;58335;-91
2023/03/09 16:38:11;;;;;;;19.50;7.20;;;;;;;11.79;66.72;99572.63;106301;1290;58211;-89
2023/03/09 16:40:37;;;;;;;27.80;8.30;;;;;;;11.73;67.59;99571.00;106255;1290;60130;-90
2023/03/09 16:43:03;;;;;;;20.10;6.90;;;;;;;11.67;68.15;99571.79;106201;1292;74680;-90
2023/03/09 16:45:29;;;;;;;20.10;7.10;;;;;;;11.64;67.73;99572.59;106231;1289;58318;-88
2023/03/09 16:47:54;;;;;;;23.20;7.90;;;;;;;11.62;67.68;99573.09;106172;1291;58586;-89
2023/03/09 16:50:21;;;;;;;26.00;7.70;;;;;;;11.60;68.37;99574.27;106124;1290;58823;-89
2023/03/09 16:52:48;;;;;;;17.50;7.30;;;;;;;11.57;68.93;99567.33;106258;1290;58279;-89
2023/03/09 16:55:17;;;;;;;20.80;6.30;;;;;;;11.58;69.23;99568.95;106155;1292;58271;-89
2023/03/09 16:57:44;;;;;;;18.00;6.50;;;;;;;11.60;68.97;99565.86;106155;1292;73264;-88
2023/03/09 17:00:13;;;;;;;13.00;5.20;;;;;;;11.65;68.71;99564.48;106082;1294;73513;-90
2023/03/09 17:02:40;;;;;;;15.40;6.90;;;;;;;11.68;68.33;99566.27;105939;1291;60324;-90
2023/03/09 17:05:08;;;;;;;13.40;5.10;;;;;;;11.71;68.08;99567.09;105973;1294;60443;-89
2023/03/09 17:07:34;;;;;;;18.80;6.00;;;;;;;11.73;67.99;99566.58;106095;1292;73700;-90
2023/03/09 17:10:02;;;;;;;22.60;5.70;;;;;;;11.73;68.17;99574.12;105975;1291;58265;-89
2023/03/09 17:12:29;;;;;;;17.50;5.20;;;;;;;11.74;68.02;99575.84;106036;1294;72936;-90
2023/03/09 17:14:55;;;;;;;14.20;4.20;;;;;;;11.73;68.03;99581.57;105789;1294;59163;-90
2023/03/09 17:17:22;;;;;;;8.60;3.80;;;;;;;11.73;67.87;99589.67;105817;1297;58544;-90
2023/03/09 17:19:47;;;;;;;6.70;3.00;;;;;;;11.73;67.53;99593.29;105822;1294;58719;-89
2023/03/09 17:22:13;;;;;;;9.00;3.70;;;;;;;11.72;67.78;99593.74;105830;1294;58877;-90
2023/03/09 17:24:39;;;;;;;8.60;3.10;;;;;;;11.72;67.51;99593.08;105796;1294;58350;-90
2023/03/09 17:27:25;;;;;;;11.60;3.30;;;;;;;11.72;67.49;99599.61;105756;1295;58622;-93
2023/03/09 17:29:50;;;;;;;9.50;3.90;;;;;;;11.70;67.65;99601.26;105568;1299;60288;-91
2023/03/09 17:32:16;;;;;;;9.00;2.90;;;;;;;11.73;67.29;99605.11;105591;1300;58483;-90
2023/03/09 17:34:42;;;;;;;9.10;3.70;;;;;;;11.72;67.39;99602.00;105558;1299;58354;-91
2023/03/09 17:37:08;;;;;;;7.90;3.70;;;;;;;11.70;67.61;99600.99;105497;1299;58333;-90
2023/03/09 17:39:35;;;;;;;9.80;3.80;;;;;;;11.69;67.76;99601.29;105528;1299;59515;-91
2023/03/09 17:42:01;;;;;;;9.00;3.60;;;;;;;11.69;67.72;99598.73;105393;1299;58469;-90
2023/03/09 17:44:27;;;;;;;11.30;3.80;;;;;;;11.71;67.22;99604.27;105511;1299;59758;-91
2023/03/09 17:46:52;;;;;;;14.20;4.10;;;;;;;11.71;67.12;99598.39;105601;1298;58324;-89